Time;durP1;ratioP1;P1;durP2;ratioP2;P2;SDS_P1;SDS_P2;PMS_P1;PMS_P2;Temp;Humidity;BMP_temperature;BMP_pressure;BME280_temperature;BME280_humidity;BME280_pressure;Samples;Min_cycle;Max_cycle;Signal;HPM_P1;HPM_P2
2022/10/14 00:00:07;;;;;;;;;;;;;;;16.05;71.02;101216.78;1255911;23;696;-71
2022/10/14 00:00:58;;;;;;;;;;;;;;;16.06;71.22;101223.84;1255943;23;681;-71
2022/10/14 00:01:48;;;;;;;;;;;;;;;16.07;70.98;101232.78;1255760;23;606;-71
2022/10/14 00:02:39;;;;;;;;;;;;;;;16.05;71.32;101222.16;1247094;23;631;-71
2022/10/14 00:03:29;;;;;;;;;;;;;;;16.05;71.17;101227.53;1247464;23;654;-71
2022/10/14 00:04:19;;;;;;;;;;;;;;;16.03;71.04;101224.09;1254943;23;661;-71
2022/10/14 00:05:10;;;;;;;;;;;;;;;16.05;71.16;101230.22;1253605;23;658;-71
2022/10/14 00:06:00;;;;;;;;;;;;;;;16.03;71.08;101224.09;1255964;23;599;-71
2022/10/14 00:06:51;;;;;;;;;;;;;;;16.01;71.18;101234.13;1255925;23;614;-71
2022/10/14 00:07:42;;;;;;;;;;;;;;;16.02;71.45;101233.16;1255967;23;654;-71
2022/10/14 00:08:32;;;;;;;;;;;;;;;16.01;71.31;101234.13;1255021;23;634;-71
2022/10/14 00:09:23;;;;;;;;;;;;;;;16.04;71.71;101230.34;1255951;23;607;-70
2022/10/14 00:10:13;;;;;;;;;;;;;;;16.03;71.51;101234.00;1255196;23;634;-71
2022/10/14 00:11:04;;;;;;;;;;;;;;;16.04;71.36;101228.50;1256003;23;661;-71
2022/10/14 00:11:54;;;;;;;;;;;;;;;16.03;71.28;101228.63;1255088;23;626;-71
2022/10/14 00:12:46;;;;;;;;;;;;;;;16.03;70.90;101226.78;1255790;23;658;-71
2022/10/14 00:13:36;;;;;;;;;;;;;;;16.04;70.80;101220.44;1255230;23;662;-70
2022/10/14 00:14:27;;;;;;;;;;;;;;;16.02;71.28;101214.31;1255896;23;602;-71
2022/10/14 00:15:17;;;;;;;;;;;;;;;16.03;71.31;101224.09;1253573;23;807;-71
2022/10/14 00:16:07;;;;;;;;;;;;;;;16.04;71.29;101219.59;1256020;23;634;-71
2022/10/14 00:16:58;;;;;;;;;;;;;;;16.05;71.10;101219.47;1255830;23;673;-71
2022/10/14 00:17:48;;;;;;;;;;;;;;;16.05;71.07;101221.28;1255942;23;614;-71
2022/10/14 00:18:39;;;;;;;;;;;;;;;16.04;71.12;101225.81;1255925;23;813;-71
2022/10/14 00:19:29;;;;;;;;;;;;;;;16.04;71.15;101224.97;1253509;23;682;-71
2022/10/14 00:20:19;;;;;;;;;;;;;;;16.03;70.62;101216.03;1256034;23;651;-71
2022/10/14 00:21:10;;;;;;;;;;;;;;;16.04;71.39;101220.44;1255931;23;882;-71
2022/10/14 00:22:00;;;;;;;;;;;;;;;16.04;71.16;101215.06;1256050;23;661;-71
2022/10/14 00:22:51;;;;;;;;;;;;;;;16.04;70.87;101212.38;1255900;23;598;-71
2022/10/14 00:23:41;;;;;;;;;;;;;;;16.02;71.15;101211.66;1255841;23;681;-71
2022/10/14 00:24:32;;;;;;;;;;;;;;;16.04;71.58;101215.06;1253294;23;607;-71
2022/10/14 00:25:24;;;;;;;;;;;;;;;16.02;70.97;101217.03;1255839;23;626;-71
2022/10/14 00:26:15;;;;;;;;;;;;;;;16.03;71.05;101218.72;1255130;23;622;-71
2022/10/14 00:27:05;;;;;;;;;;;;;;;16.02;71.27;101216.16;1255651;23;638;-71
2022/10/14 00:27:56;;;;;;;;;;;;;;;16.03;70.90;101212.50;1255916;23;709;-70
2022/10/14 00:28:46;;;;;;;;;;;;;;;16.04;71.23;101208.84;1255891;23;654;-71
2022/10/14 00:29:36;;;;;;;;;;;;;;;16.02;70.99;101203.56;1255905;23;697;-71
2022/10/14 00:30:27;;;;;;;;;;;;;;;16.02;71.40;101195.50;1256018;23;618;-71
2022/10/14 00:31:17;;;;;;;;;;;;;;;16.02;71.19;101203.56;1253665;23;599;-71
2022/10/14 00:32:08;;;;;;;;;;;;;;;16.01;70.78;101201.88;1255935;23;607;-71
2022/10/14 00:32:58;;;;;;;;;;;;;;;16.01;71.31;101198.31;1255799;23;694;-71
2022/10/14 00:33:49;;;;;;;;;;;;;;;16.01;71.22;101201.88;1253204;23;623;-71
2022/10/14 00:34:39;;;;;;;;;;;;;;;16.01;71.49;101201.88;1255917;23;759;-71
2022/10/14 00:35:31;;;;;;;;;;;;;;;16.01;71.02;101199.19;1256085;23;657;-71
2022/10/14 00:36:21;;;;;;;;;;;;;;;16.03;71.04;101205.28;1255089;23;598;-71
2022/10/14 00:37:12;;;;;;;;;;;;;;;16.03;71.36;101204.44;1255917;23;638;-71
2022/10/14 00:38:02;;;;;;;;;;;;;;;16.03;70.99;101202.59;1253554;23;646;-71
2022/10/14 00:38:53;;;;;;;;;;;;;;;16.01;70.82;101192.94;1256111;23;650;-71
2022/10/14 00:39:43;;;;;;;;;;;;;;;16.01;71.13;101196.50;1255646;23;1885;-71
2022/10/14 00:40:33;;;;;;;;;;;;;;;16.03;70.63;101193.69;1255100;23;657;-71
2022/10/14 00:41:24;;;;;;;;;;;;;;;16.03;70.84;101196.38;1253359;23;603;-70
2022/10/14 00:42:14;;;;;;;;;;;;;;;16.04;70.86;101195.38;1255715;23;638;-70
2022/10/14 00:43:05;;;;;;;;;;;;;;;16.02;70.93;101192.81;1256086;23;638;-70
2022/10/14 00:43:55;;;;;;;;;;;;;;;16.02;70.99;101195.50;1253385;23;697;-70
2022/10/14 00:44:45;;;;;;;;;;;;;;;16.01;70.84;101204.56;1255891;23;829;-71
2022/10/14 00:45:36;;;;;;;;;;;;;;;16.00;70.96;101197.47;1255877;23;666;-70
2022/10/14 00:46:26;;;;;;;;;;;;;;;15.99;71.36;101195.75;1253539;23;599;-70
2022/10/14 00:47:17;;;;;;;;;;;;;;;16.01;71.04;101190.25;1255920;23;682;-70
2022/10/14 00:48:09;;;;;;;;;;;;;;;16.01;70.94;101187.56;1247259;23;887;-71
2022/10/14 00:49:00;;;;;;;;;;;;;;;16.02;70.79;101187.44;1248778;23;634;-70
2022/10/14 00:49:50;;;;;;;;;;;;;;;16.02;70.71;101190.13;1254469;23;712;-70
2022/10/14 00:50:40;;;;;;;;;;;;;;;16.03;70.99;101191.84;1246942;23;662;-70
2022/10/14 00:51:31;;;;;;;;;;;;;;;16.02;71.01;101190.13;1249014;23;656;-70
2022/10/14 00:52:21;;;;;;;;;;;;;;;16.00;70.80;101184.03;1254935;23;618;-70
2022/10/14 00:53:12;;;;;;;;;;;;;;;16.00;70.57;101185.88;1255893;23;605;-70
2022/10/14 00:54:03;;;;;;;;;;;;;;;16.00;70.71;101183.19;1254521;23;606;-70
2022/10/14 00:54:53;;;;;;;;;;;;;;;16.00;71.21;101180.47;1255819;23;682;-70
2022/10/14 00:55:44;;;;;;;;;;;;;;;16.01;70.82;101172.28;1256269;23;653;-69
2022/10/14 00:56:34;;;;;;;;;;;;;;;15.99;71.30;101171.56;1256206;23;677;-70
2022/10/14 00:57:25;;;;;;;;;;;;;;;15.98;70.72;101173.41;1256229;23;597;-69
2022/10/14 00:58:15;;;;;;;;;;;;;;;15.99;70.90;101171.56;1256234;23;646;-70
2022/10/14 00:59:05;;;;;;;;;;;;;;;15.98;71.06;101167.16;1255408;23;696;-70
2022/10/14 00:59:56;;;;;;;;;;;;;;;16.00;70.52;101164.34;1256211;23;1889;-69
2022/10/14 01:00:46;;;;;;;;;;;;;;;15.97;70.48;101160.94;1256050;23;661;-69
2022/10/14 01:01:37;;;;;;;;;;;;;;;15.98;71.24;101161.78;1253786;23;607;-69
2022/10/14 01:02:27;;;;;;;;;;;;;;;15.98;70.68;101159.97;1256130;23;649;-69
2022/10/14 01:03:18;;;;;;;;;;;;;;;16.00;70.77;101157.16;1256134;23;638;-70
2022/10/14 01:04:08;;;;;;;;;;;;;;;16.01;70.97;101152.63;1256128;23;1513;-70
2022/10/14 01:04:58;;;;;;;;;;;;;;;15.99;70.92;101147.38;1255381;23;661;-70
2022/10/14 01:05:49;;;;;;;;;;;;;;;16.00;70.75;101145.53;1256220;23;586;-70
2022/10/14 01:06:39;;;;;;;;;;;;;;;16.00;70.71;101151.78;1256251;23;630;-71
2022/10/14 01:07:30;;;;;;;;;;;;;;;16.00;71.00;101148.22;1256134;23;626;-70
2022/10/14 01:08:20;;;;;;;;;;;;;;;15.98;71.06;101141.13;1255719;23;571;-70
2022/10/14 01:09:11;;;;;;;;;;;;;;;15.99;71.07;101139.31;1256266;23;646;-70
2022/10/14 01:10:01;;;;;;;;;;;;;;;16.00;71.17;101141.00;1253907;23;619;-71
2022/10/14 01:10:52;;;;;;;;;;;;;;;16.01;71.24;101136.50;1256242;23;646;-70
2022/10/14 01:11:42;;;;;;;;;;;;;;;16.01;70.71;101133.81;1256189;23;594;-70
2022/10/14 01:12:32;;;;;;;;;;;;;;;16.00;71.30;101126.72;1256186;23;754;-71
2022/10/14 01:13:23;;;;;;;;;;;;;;;15.99;71.42;101125.88;1256254;23;705;-70
2022/10/14 01:14:13;;;;;;;;;;;;;;;15.98;71.58;101126.84;1253838;23;611;-71
2022/10/14 01:15:04;;;;;;;;;;;;;;;16.00;70.53;101130.25;1256410;23;602;-70
2022/10/14 01:15:54;;;;;;;;;;;;;;;15.98;71.20;101126.84;1256175;23;618;-70
2022/10/14 01:16:45;;;;;;;;;;;;;;;15.97;71.79;101117.06;1255405;23;653;-70
2022/10/14 01:17:36;;;;;;;;;;;;;;;15.98;71.31;101124.16;1256042;23;681;-70
2022/10/14 01:18:26;;;;;;;;;;;;;;;15.99;71.74;101125.88;1255370;23;642;-70
2022/10/14 01:19:16;;;;;;;;;;;;;;;15.99;71.13;101123.19;1254018;23;614;-70
2022/10/14 01:20:07;;;;;;;;;;;;;;;16.01;71.42;101131.13;1256021;23;1944;-70
2022/10/14 01:20:57;;;;;;;;;;;;;;;16.00;71.23;101122.19;1256211;23;654;-70
2022/10/14 01:21:48;;;;;;;;;;;;;;;15.98;71.24;101130.38;1256214;23;661;-70
2022/10/14 01:22:38;;;;;;;;;;;;;;;15.97;71.41;101125.13;1255522;23;741;-71
2022/10/14 01:23:29;;;;;;;;;;;;;;;15.98;71.23;101125.00;1256471;23;634;-71
2022/10/14 01:24:19;;;;;;;;;;;;;;;15.99;71.17;101125.88;1256083;23;649;-71
2022/10/14 01:25:09;;;;;;;;;;;;;;;15.98;71.16;101126.84;1256194;23;634;-70
2022/10/14 01:26:00;;;;;;;;;;;;;;;15.97;71.35;101127.81;1256201;23;630;-70
2022/10/14 01:26:50;;;;;;;;;;;;;;;15.96;71.26;101121.59;1256162;23;658;-70
2022/10/14 01:27:41;;;;;;;;;;;;;;;15.97;71.32;101119.75;1256333;23;655;-70
2022/10/14 01:28:31;;;;;;;;;;;;;;;15.95;71.52;101125.25;1256155;23;669;-70
2022/10/14 01:29:22;;;;;;;;;;;;;;;15.96;71.60;101123.44;1255420;23;689;-70
2022/10/14 01:30:12;;;;;;;;;;;;;;;15.97;71.31;101130.50;1256251;23;654;-70
2022/10/14 01:31:02;;;;;;;;;;;;;;;15.96;71.18;101132.34;1247561;23;685;-70
2022/10/14 01:31:53;;;;;;;;;;;;;;;15.95;71.19;101127.94;1248263;23;650;-71
2022/10/14 01:32:43;;;;;;;;;;;;;;;15.94;71.34;101137.00;1255188;23;661;-71
2022/10/14 01:33:34;;;;;;;;;;;;;;;15.96;70.98;101135.03;1256224;23;582;-71
2022/10/14 01:34:24;;;;;;;;;;;;;;;15.96;71.13;101132.34;1253887;23;733;-70
2022/10/14 01:35:15;;;;;;;;;;;;;;;15.96;71.13;101137.72;1253647;23;657;-71
2022/10/14 01:36:05;;;;;;;;;;;;;;;15.96;71.66;101137.72;1256125;23;680;-71
2022/10/14 01:36:55;;;;;;;;;;;;;;;15.97;70.97;101143.97;1256204;23;655;-71
2022/10/14 01:37:46;;;;;;;;;;;;;;;15.97;71.19;101149.31;1256081;23;658;-71
2022/10/14 01:38:36;;;;;;;;;;;;;;;15.96;70.99;101148.47;1256170;23;678;-70
2022/10/14 01:39:27;;;;;;;;;;;;;;;15.98;71.25;101148.34;1256125;23;654;-71
2022/10/14 01:40:17;;;;;;;;;;;;;;;15.98;71.02;101142.97;1255575;23;677;-71
2022/10/14 01:41:08;;;;;;;;;;;;;;;15.98;70.97;101143.84;1253732;23;631;-71
2022/10/14 01:41:58;;;;;;;;;;;;;;;15.98;71.11;101140.28;1256172;23;626;-70
2022/10/14 01:42:49;;;;;;;;;;;;;;;15.98;71.21;101145.66;1256252;23;704;-71
2022/10/14 01:43:39;;;;;;;;;;;;;;;15.98;71.31;101146.53;1256128;23;631;-71
2022/10/14 01:44:30;;;;;;;;;;;;;;;15.96;71.29;101144.94;1256353;23;599;-70
2022/10/14 01:45:20;;;;;;;;;;;;;;;15.99;71.15;101152.75;1256132;23;696;-71
2022/10/14 01:46:10;;;;;;;;;;;;;;;15.97;71.83;101160.09;1247332;23;670;-70
2022/10/14 01:47:01;;;;;;;;;;;;;;;15.97;71.70;101157.41;1249116;23;619;-71
2022/10/14 01:47:51;;;;;;;;;;;;;;;15.98;71.32;101151.91;1255134;23;661;-72
2022/10/14 01:48:42;;;;;;;;;;;;;;;15.98;71.39;101151.03;1256207;23;693;-71
2022/10/14 01:49:32;;;;;;;;;;;;;;;15.97;71.62;101154.72;1253617;23;724;-70
2022/10/14 01:50:23;;;;;;;;;;;;;;;15.96;71.44;101153.84;1256128;23;1100;-70
2022/10/14 01:51:14;;;;;;;;;;;;;;;15.94;71.82;101153.13;1255381;23;666;-70
2022/10/14 01:52:04;;;;;;;;;;;;;;;15.95;71.34;101154.84;1254737;23;640;-70
2022/10/14 01:52:55;;;;;;;;;;;;;;;15.97;71.40;101154.72;1256218;23;633;-71
2022/10/14 01:53:45;;;;;;;;;;;;;;;15.95;71.27;101157.53;1256061;23;700;-71
2022/10/14 01:54:36;;;;;;;;;;;;;;;15.94;71.21;101155.81;1253385;23;587;-71
2022/10/14 01:55:26;;;;;;;;;;;;;;;15.93;71.75;101145.22;1256196;23;590;-70
2022/10/14 01:56:16;;;;;;;;;;;;;;;15.94;71.21;101141.53;1255955;23;646;-71
2022/10/14 01:57:07;;;;;;;;;;;;;;;15.94;71.51;101149.63;1256214;23;665;-71
2022/10/14 01:57:57;;;;;;;;;;;;;;;15.94;71.46;101146.91;1253858;23;682;-71
2022/10/14 01:58:48;;;;;;;;;;;;;;;15.95;70.87;101151.28;1256089;23;673;-71
2022/10/14 01:59:40;;;;;;;;;;;;;;;15.96;71.33;101153.00;1253756;23;646;-71
2022/10/14 02:00:30;;;;;;;;;;;;;;;15.95;71.22;101152.16;1256026;23;653;-70
2022/10/14 02:01:21;;;;;;;;;;;;;;;15.95;71.52;101151.28;1256251;23;618;-71
2022/10/14 02:02:11;;;;;;;;;;;;;;;15.97;70.92;101149.31;1256145;23;622;-70
2022/10/14 02:03:01;;;;;;;;;;;;;;;15.95;70.88;101143.22;1256152;23;634;-70
2022/10/14 02:03:52;;;;;;;;;;;;;;;15.94;71.54;101145.06;1255902;23;1041;-70
2022/10/14 02:04:42;;;;;;;;;;;;;;;15.96;71.41;101147.63;1255912;23;686;-70
2022/10/14 02:05:33;;;;;;;;;;;;;;;15.94;71.58;101144.22;1253596;23;635;-70
2022/10/14 02:06:23;;;;;;;;;;;;;;;15.94;71.06;101138.84;1255270;23;660;-71
2022/10/14 02:07:14;;;;;;;;;;;;;;;15.93;71.00;101139.84;1256019;23;705;-71
2022/10/14 02:08:04;;;;;;;;;;;;;;;15.94;71.22;101145.06;1253595;23;647;-71
2022/10/14 02:08:54;;;;;;;;;;;;;;;15.95;71.35;101140.53;1255829;23;662;-71
2022/10/14 02:09:45;;;;;;;;;;;;;;;15.96;71.50;101135.03;1256155;23;611;-71
2022/10/14 02:10:35;;;;;;;;;;;;;;;15.95;70.82;101133.31;1256047;23;650;-71
2022/10/14 02:11:26;;;;;;;;;;;;;;;15.95;71.29;101130.63;1253468;23;705;-71
2022/10/14 02:12:16;;;;;;;;;;;;;;;15.95;71.07;101132.47;1256073;23;662;-71
2022/10/14 02:13:07;;;;;;;;;;;;;;;15.95;71.28;101135.16;1255226;23;701;-71
2022/10/14 02:13:57;;;;;;;;;;;;;;;15.95;71.22;101129.78;1256188;23;629;-71
2022/10/14 02:14:47;;;;;;;;;;;;;;;15.96;71.07;101134.19;1256054;23;682;-71
2022/10/14 02:15:38;;;;;;;;;;;;;;;15.96;71.02;101139.56;1256062;23;603;-71
2022/10/14 02:16:28;;;;;;;;;;;;;;;15.95;71.01;101141.38;1256200;23;583;-71
2022/10/14 02:17:19;;;;;;;;;;;;;;;15.96;71.38;101128.81;1247249;23;674;-71
2022/10/14 02:18:09;;;;;;;;;;;;;;;15.95;70.62;101127.94;1249172;23;650;-71
2022/10/14 02:19:00;;;;;;;;;;;;;;;15.97;70.89;101130.50;1255115;23;623;-71
2022/10/14 02:19:50;;;;;;;;;;;;;;;15.94;71.05;101128.94;1255974;23;1954;-71
2022/10/14 02:20:40;;;;;;;;;;;;;;;15.95;70.80;101124.41;1255566;23;626;-71
2022/10/14 02:21:31;;;;;;;;;;;;;;;15.93;70.94;101129.09;1253468;23;599;-71
2022/10/14 02:22:21;;;;;;;;;;;;;;;15.93;71.10;101126.41;1256036;23;642;-71
2022/10/14 02:23:12;;;;;;;;;;;;;;;15.94;71.31;101130.78;1256282;23;645;-71
2022/10/14 02:24:02;;;;;;;;;;;;;;;15.95;70.97;101119.88;1256034;23;665;-71
2022/10/14 02:24:52;;;;;;;;;;;;;;;15.91;71.05;101126.53;1256124;23;894;-71
2022/10/14 02:25:43;;;;;;;;;;;;;;;15.93;71.25;101132.63;1253430;23;654;-71
2022/10/14 02:26:33;;;;;;;;;;;;;;;15.93;70.93;101129.09;1253750;23;653;-71
2022/10/14 02:27:24;;;;;;;;;;;;;;;15.94;71.04;101138.84;1256176;23;610;-71
2022/10/14 02:28:14;;;;;;;;;;;;;;;15.94;70.95;101136.16;1255949;23;677;-71
2022/10/14 02:29:05;;;;;;;;;;;;;;;15.93;71.14;101137.16;1256193;23;700;-71
2022/10/14 02:29:55;;;;;;;;;;;;;;;15.95;70.70;101135.16;1253619;23;634;-70
2022/10/14 02:30:45;;;;;;;;;;;;;;;15.97;71.07;101138.56;1256005;23;642;-71
2022/10/14 02:31:36;;;;;;;;;;;;;;;15.96;70.90;101136.88;1256025;23;677;-71
2022/10/14 02:32:27;;;;;;;;;;;;;;;15.95;71.34;101135.16;1253731;23;673;-71
2022/10/14 02:33:19;;;;;;;;;;;;;;;15.96;70.58;101131.50;1255151;23;688;-70
2022/10/14 02:34:10;;;;;;;;;;;;;;;15.94;71.08;101123.56;1255224;23;666;-71
2022/10/14 02:35:00;;;;;;;;;;;;;;;15.94;70.91;101117.34;1253599;23;655;-71
2022/10/14 02:35:50;;;;;;;;;;;;;;;15.94;71.04;101122.72;1256145;23;798;-70
2022/10/14 02:36:41;;;;;;;;;;;;;;;15.95;71.10;101119.03;1255972;23;619;-71
2022/10/14 02:37:31;;;;;;;;;;;;;;;15.95;70.69;101113.66;1256213;23;716;-70
2022/10/14 02:38:22;;;;;;;;;;;;;;;15.94;71.09;101112.81;1253265;23;741;-70
2022/10/14 02:39:12;;;;;;;;;;;;;;;15.94;70.74;101109.28;1253596;23;662;-71
2022/10/14 02:40:02;;;;;;;;;;;;;;;15.93;71.06;101104.91;1255953;23;1928;-71
2022/10/14 02:40:53;;;;;;;;;;;;;;;15.92;70.53;101103.19;1256000;23;679;-70
2022/10/14 02:41:43;;;;;;;;;;;;;;;15.93;70.75;101091.47;1256130;23;642;-71
2022/10/14 02:42:34;;;;;;;;;;;;;;;15.93;70.49;101095.00;1256071;23;737;-71
2022/10/14 02:43:24;;;;;;;;;;;;;;;15.93;70.87;101094.16;1253644;23;610;-71
2022/10/14 02:44:15;;;;;;;;;;;;;;;15.92;70.37;101089.75;1256023;23;605;-70
2022/10/14 02:45:05;;;;;;;;;;;;;;;15.92;70.80;101090.59;1255949;23;606;-70
2022/10/14 02:45:55;;;;;;;;;;;;;;;15.91;70.90;101093.41;1247520;23;666;-70
2022/10/14 02:46:46;;;;;;;;;;;;;;;15.93;70.41;101084.25;1248134;23;625;-71
2022/10/14 02:47:36;;;;;;;;;;;;;;;15.92;70.78;101085.22;1255127;23;641;-70
2022/10/14 02:48:27;;;;;;;;;;;;;;;15.92;70.67;101087.06;1256063;23;618;-71
2022/10/14 02:49:17;;;;;;;;;;;;;;;15.91;70.53;101083.53;1256030;23;669;-71
2022/10/14 02:50:08;;;;;;;;;;;;;;;15.92;70.79;101093.28;1256118;23;633;-70
2022/10/14 02:50:58;;;;;;;;;;;;;;;15.94;70.64;101098.53;1255164;23;662;-70
2022/10/14 02:51:49;;;;;;;;;;;;;;;15.94;70.30;101095.84;1256190;23;712;-71
2022/10/14 02:52:39;;;;;;;;;;;;;;;15.94;70.90;101099.38;1253563;23;631;-71
2022/10/14 02:53:29;;;;;;;;;;;;;;;15.94;70.66;101106.59;1255976;23;642;-70
2022/10/14 02:54:20;;;;;;;;;;;;;;;15.93;70.64;101097.69;1256194;23;625;-71
2022/10/14 02:55:10;;;;;;;;;;;;;;;15.93;70.25;101097.69;1255984;23;692;-71
2022/10/14 02:56:01;;;;;;;;;;;;;;;15.93;70.37;101094.16;1256056;23;721;-70
2022/10/14 02:56:51;;;;;;;;;;;;;;;15.92;70.63;101100.50;1255988;23;674;-71
2022/10/14 02:57:42;;;;;;;;;;;;;;;15.92;71.01;101087.06;1255866;23;673;-71
2022/10/14 02:58:32;;;;;;;;;;;;;;;15.91;70.66;101096.97;1253615;23;690;-71
2022/10/14 02:59:23;;;;;;;;;;;;;;;15.93;70.71;101096.84;1255831;23;645;-71
2022/10/14 03:00:13;;;;;;;;;;;;;;;15.93;70.67;101095.00;1256052;23;2252;-71
2022/10/14 03:01:03;;;;;;;;;;;;;;;15.92;70.58;101087.91;1255996;23;625;-72
2022/10/14 03:01:54;;;;;;;;;;;;;;;15.91;70.65;101085.34;1247028;23;693;-72
2022/10/14 03:02:44;;;;;;;;;;;;;;;15.92;70.57;101087.06;1248995;23;614;-71
2022/10/14 03:03:35;;;;;;;;;;;;;;;15.91;70.95;101090.72;1254488;23;650;-70
2022/10/14 03:04:25;;;;;;;;;;;;;;;15.92;70.51;101092.44;1255144;23;1101;-70
2022/10/14 03:05:15;;;;;;;;;;;;;;;15.91;70.89;101088.03;1256074;23;634;-69
2022/10/14 03:06:06;;;;;;;;;;;;;;;15.90;70.71;101089.88;1253464;23;606;-71
2022/10/14 03:06:56;;;;;;;;;;;;;;;15.92;70.73;101100.50;1256102;23;697;-70
2022/10/14 03:07:47;;;;;;;;;;;;;;;15.93;70.67;101094.16;1256123;23;615;-70
2022/10/14 03:08:37;;;;;;;;;;;;;;;15.92;70.83;101090.59;1253532;23;611;-70
2022/10/14 03:09:28;;;;;;;;;;;;;;;15.92;70.76;101087.91;1253846;23;787;-71
2022/10/14 03:10:18;;;;;;;;;;;;;;;15.92;70.59;101084.38;1255926;23;669;-71
2022/10/14 03:11:08;;;;;;;;;;;;;;;15.92;70.36;101087.06;1255989;23;661;-71
2022/10/14 03:11:59;;;;;;;;;;;;;;;15.92;70.42;101089.75;1256072;23;618;-70
2022/10/14 03:12:49;;;;;;;;;;;;;;;15.92;70.63;101084.38;1253586;23;677;-71
2022/10/14 03:13:40;;;;;;;;;;;;;;;15.91;70.94;101077.28;1253315;23;525;-71
2022/10/14 03:14:30;;;;;;;;;;;;;;;15.90;70.60;101080.97;1255923;23;618;-71
2022/10/14 03:15:21;;;;;;;;;;;;;;;15.90;70.85;101078.28;1255911;23;642;-71
2022/10/14 03:16:11;;;;;;;;;;;;;;;15.91;70.66;101079.97;1255985;23;611;-70
2022/10/14 03:17:01;;;;;;;;;;;;;;;15.90;70.78;101078.28;1253560;23;626;-70
2022/10/14 03:17:52;;;;;;;;;;;;;;;15.91;70.92;101074.59;1256052;23;665;-71
2022/10/14 03:18:42;;;;;;;;;;;;;;;15.90;70.46;101070.22;1255187;23;670;-71
2022/10/14 03:19:33;;;;;;;;;;;;;;;15.90;70.76;101076.44;1255305;23;685;-71
2022/10/14 03:20:23;;;;;;;;;;;;;;;15.91;70.73;101074.59;1256018;23;626;-71
2022/10/14 03:21:14;;;;;;;;;;;;;;;15.90;70.63;101078.28;1246949;23;713;-71
2022/10/14 03:22:04;;;;;;;;;;;;;;;15.90;70.30;101076.44;1249116;23;595;-71
2022/10/14 03:22:54;;;;;;;;;;;;;;;15.90;70.82;101078.28;1254837;23;658;-71
2022/10/14 03:23:45;;;;;;;;;;;;;;;15.91;70.61;101070.09;1256048;23;634;-71
2022/10/14 03:24:35;;;;;;;;;;;;;;;15.90;70.78;101075.59;1255897;23;685;-71
2022/10/14 03:25:27;;;;;;;;;;;;;;;15.89;70.74;101077.41;1255165;23;673;-71
2022/10/14 03:26:18;;;;;;;;;;;;;;;15.90;70.27;101071.06;1255296;23;697;-71
2022/10/14 03:27:08;;;;;;;;;;;;;;;15.92;70.65;101070.94;1255959;23;788;-71
2022/10/14 03:27:59;;;;;;;;;;;;;;;15.89;70.66;101071.19;1256107;23;614;-71
2022/10/14 03:28:49;;;;;;;;;;;;;;;15.88;71.12;101075.72;1253500;23;674;-71
2022/10/14 03:29:39;;;;;;;;;;;;;;;15.89;70.75;101065.81;1255775;23;630;-71
2022/10/14 03:30:30;;;;;;;;;;;;;;;15.90;70.66;101065.69;1255997;23;598;-71
2022/10/14 03:31:20;;;;;;;;;;;;;;;15.90;70.88;101059.44;1255965;23;669;-70
2022/10/14 03:32:11;;;;;;;;;;;;;;;15.89;71.01;101072.03;1253351;23;690;-70
2022/10/14 03:33:01;;;;;;;;;;;;;;;15.91;70.60;101071.91;1255979;23;594;-70
2022/10/14 03:33:52;;;;;;;;;;;;;;;15.91;70.66;101071.91;1256084;23;654;-70
2022/10/14 03:34:42;;;;;;;;;;;;;;;15.89;70.70;101068.50;1256021;23;641;-70
2022/10/14 03:35:33;;;;;;;;;;;;;;;15.90;70.95;101062.16;1255787;23;670;-71
2022/10/14 03:36:23;;;;;;;;;;;;;;;15.89;70.62;101060.44;1255994;23;787;-71
2022/10/14 03:37:13;;;;;;;;;;;;;;;15.89;70.64;101065.81;1256120;23;684;-71
2022/10/14 03:38:05;;;;;;;;;;;;;;;15.90;70.81;101060.31;1255964;23;650;-71
2022/10/14 03:38:55;;;;;;;;;;;;;;;15.88;70.50;101054.22;1255187;23;661;-71
2022/10/14 03:39:46;;;;;;;;;;;;;;;15.88;70.50;101047.97;1255975;23;650;-71
2022/10/14 03:40:36;;;;;;;;;;;;;;;15.87;70.44;101060.56;1253375;23;697;-71
2022/10/14 03:41:27;;;;;;;;;;;;;;;15.87;70.40;101057.88;1255912;23;670;-71
2022/10/14 03:42:17;;;;;;;;;;;;;;;15.88;70.42;101050.66;1255960;23;622;-71
2022/10/14 03:43:08;;;;;;;;;;;;;;;15.88;70.83;101054.22;1255941;23;637;-71
2022/10/14 03:43:58;;;;;;;;;;;;;;;15.91;70.58;101050.41;1255821;23;622;-71
2022/10/14 03:44:48;;;;;;;;;;;;;;;15.89;70.42;101052.38;1255972;23;685;-71
2022/10/14 03:45:39;;;;;;;;;;;;;;;15.88;70.30;101047.97;1255989;23;642;-70
2022/10/14 03:46:30;;;;;;;;;;;;;;;15.88;70.57;101053.34;1255981;23;602;-69
2022/10/14 03:47:20;;;;;;;;;;;;;;;15.88;70.70;101046.16;1255075;23;618;-70
2022/10/14 03:48:11;;;;;;;;;;;;;;;15.86;70.52;101045.41;1253640;23;575;-71
2022/10/14 03:49:01;;;;;;;;;;;;;;;15.86;70.19;101048.09;1253336;23;599;-71
2022/10/14 03:49:51;;;;;;;;;;;;;;;15.87;70.21;101046.28;1255949;23;626;-71
2022/10/14 03:50:42;;;;;;;;;;;;;;;15.86;70.49;101048.09;1255954;23;601;-71
2022/10/14 03:51:32;;;;;;;;;;;;;;;15.86;70.97;101036.50;1255967;23;653;-70
2022/10/14 03:52:23;;;;;;;;;;;;;;;15.85;70.64;101038.34;1253393;23;650;-70
2022/10/14 03:53:13;;;;;;;;;;;;;;;15.86;70.85;101028.44;1255933;23;624;-70
2022/10/14 03:54:04;;;;;;;;;;;;;;;15.88;70.51;101031.84;1255917;23;634;-70
2022/10/14 03:54:54;;;;;;;;;;;;;;;15.89;70.91;101028.19;1253336;23;600;-70
2022/10/14 03:55:44;;;;;;;;;;;;;;;15.89;70.66;101029.03;1255961;23;665;-71
2022/10/14 03:56:35;;;;;;;;;;;;;;;15.87;70.42;101027.47;1255989;23;630;-71
2022/10/14 03:57:25;;;;;;;;;;;;;;;15.87;70.93;101024.78;1253513;23;666;-70
2022/10/14 03:58:16;;;;;;;;;;;;;;;15.86;70.73;101025.75;1256023;23;654;-70
2022/10/14 03:59:06;;;;;;;;;;;;;;;15.86;70.93;101021.22;1255928;23;673;-70
2022/10/14 03:59:57;;;;;;;;;;;;;;;15.88;70.64;101018.41;1255083;23;1889;-70
2022/10/14 04:00:47;;;;;;;;;;;;;;;15.86;70.33;101023.06;1255967;23;692;-70
2022/10/14 04:01:38;;;;;;;;;;;;;;;15.86;70.58;101015.84;1255685;23;649;-70
2022/10/14 04:02:28;;;;;;;;;;;;;;;15.87;71.01;101016.72;1255400;23;626;-70
2022/10/14 04:03:19;;;;;;;;;;;;;;;15.86;70.26;101015.00;1253558;23;634;-70
2022/10/14 04:04:09;;;;;;;;;;;;;;;15.87;70.52;101024.78;1255805;23;1125;-70
2022/10/14 04:04:59;;;;;;;;;;;;;;;15.86;70.49;101013.16;1247182;23;811;-70
2022/10/14 04:05:50;;;;;;;;;;;;;;;15.86;70.80;101023.91;1248802;23;629;-70
2022/10/14 04:06:40;;;;;;;;;;;;;;;15.86;70.72;101018.53;1254952;23;599;-69
2022/10/14 04:07:31;;;;;;;;;;;;;;;15.87;71.07;101014.03;1256082;23;606;-69
2022/10/14 04:08:21;;;;;;;;;;;;;;;15.86;70.93;101013.16;1255766;23;610;-69
2022/10/14 04:09:12;;;;;;;;;;;;;;;15.87;70.32;101012.19;1255163;23;622;-70
2022/10/14 04:10:02;;;;;;;;;;;;;;;15.88;70.64;101007.66;1255815;23;661;-70
2022/10/14 04:10:53;;;;;;;;;;;;;;;15.86;70.79;101009.63;1256032;23;740;-69
2022/10/14 04:11:43;;;;;;;;;;;;;;;15.87;70.59;101014.03;1255803;23;697;-69
2022/10/14 04:12:34;;;;;;;;;;;;;;;15.87;70.64;101009.50;1253581;23;670;-69
2022/10/14 04:13:24;;;;;;;;;;;;;;;15.89;70.49;101020.13;1255952;23;626;-69
2022/10/14 04:14:14;;;;;;;;;;;;;;;15.89;70.67;101014.75;1253418;23;633;-70
2022/10/14 04:15:05;;;;;;;;;;;;;;;15.90;70.46;101013.75;1256014;23;634;-69
2022/10/14 04:15:55;;;;;;;;;;;;;;;15.89;70.21;101012.06;1255704;23;673;-69
2022/10/14 04:16:46;;;;;;;;;;;;;;;15.88;70.67;101016.56;1255424;23;572;-69
2022/10/14 04:17:36;;;;;;;;;;;;;;;15.88;70.33;101011.22;1256035;23;649;-69
2022/10/14 04:18:27;;;;;;;;;;;;;;;15.88;70.77;101013.91;1255787;23;661;-69
2022/10/14 04:19:17;;;;;;;;;;;;;;;15.88;70.39;101011.22;1255995;23;733;-69
2022/10/14 04:20:07;;;;;;;;;;;;;;;15.90;70.69;101013.75;1255787;23;1962;-69
2022/10/14 04:20:58;;;;;;;;;;;;;;;15.90;70.30;101019.13;1255928;23;661;-71
2022/10/14 04:21:48;;;;;;;;;;;;;;;15.89;70.44;101014.75;1253601;23;674;-70
2022/10/14 04:22:39;;;;;;;;;;;;;;;15.90;70.42;101008.38;1253630;23;594;-70
2022/10/14 04:23:29;;;;;;;;;;;;;;;15.90;70.47;101014.63;1255925;23;657;-70
2022/10/14 04:24:20;;;;;;;;;;;;;;;15.90;70.77;101006.56;1255861;23;650;-70
2022/10/14 04:25:10;;;;;;;;;;;;;;;15.91;70.48;101010.09;1246970;23;619;-70
2022/10/14 04:26:00;;;;;;;;;;;;;;;15.90;70.41;101009.25;1247235;23;705;-70